Gipsy, Missouri
Current Conditions -  °F | °C
As of 3:53 AM on Friday 24 Oct 2014 (Local Time) from KPOF Reporting Station
Haze Haze  
Wind Chill: 47°   Ceiling: 3300
Heat Index: 47°   Visibility: 6mi
Dew Point: 44°   Wind: 0mph
Humidity: 90%   Direction: NA
Pressure: 30.12"   Gusts: NA
Location:  37.15°N, 90.18°W
Report Text: KPOF 240853Z AUTO 00000KT 6SM BR BKN033 08/07 A3012 RMK AO2 SLP200 T00830067 58004
Loading
Personal Weather Stations






























Interactive Weather Map
Tropical Storm Tracking
New forecast layout! Learn more

10-Day Weather Forecast

Advertisements
Track Severe Weather on mobile